createdAt,value
2022-11-09T00:01:39.807Z,99277.12
2022-11-09T00:04:08.454Z,99277.51
2022-11-09T00:06:37.856Z,99275.09
2022-11-09T00:09:09.902Z,99271.57
2022-11-09T00:11:38.465Z,99275.48
2022-11-09T00:14:06.962Z,99279.04
2022-11-09T00:16:35.445Z,99273.27
2022-11-09T00:19:03.828Z,99274.92
2022-11-09T00:21:32.277Z,99279.04
2022-11-09T00:24:00.858Z,99278.87
2022-11-09T00:26:29.242Z,99276.48
2022-11-09T00:28:57.697Z,99275.11
2022-11-09T00:31:26.269Z,99275.90
2022-11-09T00:33:56.997Z,99276.06
2022-11-09T00:36:28.174Z,99276.80
2022-11-09T00:38:59.185Z,99271.41
2022-11-09T00:41:28.426Z,99269.66
2022-11-09T00:43:57.359Z,99268.83
2022-11-09T00:46:26.530Z,99270.24
2022-11-09T00:48:56.348Z,99266.39
2022-11-09T00:51:25.617Z,99263.93
2022-11-09T00:53:56.172Z,99263.30
2022-11-09T00:56:25.177Z,99262.65
2022-11-09T00:58:56.563Z,99261.27
2022-11-09T01:01:25.497Z,99261.98
2022-11-09T01:03:54.009Z,99262.09
2022-11-09T01:06:24.840Z,99264.07
2022-11-09T01:08:53.661Z,99263.05
2022-11-09T01:11:23.871Z,99263.75
2022-11-09T01:13:55.600Z,99265.73
2022-11-09T01:16:24.948Z,99263.33
2022-11-09T01:18:55.803Z,99263.45
2022-11-09T01:21:27.490Z,99264.89
2022-11-09T01:23:58.648Z,99259.97
2022-11-09T01:26:30.188Z,99259.96
2022-11-09T01:28:58.535Z,99257.85
2022-11-09T01:31:27.351Z,99260.77
2022-11-09T01:33:55.845Z,99265.02
2022-11-09T01:36:25.227Z,99264.73
2022-11-09T01:38:53.641Z,99266.16
2022-11-09T01:41:25.975Z,99261.13
2022-11-09T01:44:03.509Z,99260.96
2022-11-09T01:46:57.666Z,99262.31
2022-11-09T01:49:41.477Z,99262.98
2022-11-09T01:52:26.162Z,99259.91
2022-11-09T01:55:07.947Z,99259.80
2022-11-09T01:57:59.745Z,99259.94
2022-11-09T02:00:30.505Z,99264.75
2022-11-09T02:03:05.576Z,99265.63
2022-11-09T02:05:39.015Z,99262.59
2022-11-09T02:08:09.165Z,99262.60
2022-11-09T02:11:07.750Z,99266.02
2022-11-09T02:13:40.027Z,99267.08
2022-11-09T02:16:12.693Z,99265.33
2022-11-09T02:19:03.448Z,99261.67
2022-11-09T02:21:33.714Z,99257.61
2022-11-09T02:24:02.194Z,99257.17
2022-11-09T02:26:41.541Z,99253.42
2022-11-09T02:29:14.742Z,99253.70
2022-11-09T02:31:48.920Z,99250.71
2022-11-09T02:34:20.813Z,99252.69
2022-11-09T02:36:49.393Z,99253.75
2022-11-09T02:39:24.920Z,99253.95
2022-11-09T02:42:03.399Z,99255.27
2022-11-09T02:44:39.819Z,99251.64
2022-11-09T02:47:09.961Z,99251.29
2022-11-09T02:49:38.381Z,99251.46
2022-11-09T02:52:06.821Z,99252.55
2022-11-09T02:54:35.679Z,99255.54
2022-11-09T02:57:05.976Z,99254.98
2022-11-09T02:59:34.726Z,99254.21
2022-11-09T03:02:03.631Z,99255.36
2022-11-09T03:04:32.472Z,99250.27
2022-11-09T03:07:02.090Z,99252.84
2022-11-09T03:09:31.190Z,99253.33
2022-11-09T03:11:59.696Z,99255.20
2022-11-09T03:14:28.138Z,99255.73
2022-11-09T03:16:58.413Z,99254.35
2022-11-09T03:19:28.130Z,99253.50
2022-11-09T03:21:56.492Z,99255.64
2022-11-09T03:24:25.394Z,99255.66
2022-11-09T03:26:56.438Z,99255.33
2022-11-09T03:29:25.471Z,99257.55
2022-11-09T03:31:53.889Z,99253.90
2022-11-09T03:34:22.724Z,99253.19
2022-11-09T03:36:51.085Z,99252.92
2022-11-09T03:39:20.035Z,99252.62
2022-11-09T03:41:50.163Z,99253.95
2022-11-09T03:44:20.304Z,99256.05
2022-11-09T03:46:48.727Z,99255.96
2022-11-09T03:49:17.081Z,99254.37
2022-11-09T03:51:45.469Z,99254.23
2022-11-09T03:54:13.834Z,99254.23
2022-11-09T03:56:42.266Z,99248.38
2022-11-09T03:59:10.697Z,99252.06
2022-11-09T04:01:39.084Z,99251.05
2022-11-09T04:04:07.535Z,99256.61
2022-11-09T04:06:36.058Z,99254.57
2022-11-09T04:09:04.495Z,99254.01
2022-11-09T04:11:32.889Z,99247.19
2022-11-09T04:14:01.533Z,99246.55
2022-11-09T04:16:29.909Z,99241.98
2022-11-09T04:18:58.361Z,99238.10
2022-11-09T04:21:26.727Z,99233.23
2022-11-09T04:23:55.176Z,99226.20
2022-11-09T04:26:23.617Z,99221.48
2022-11-09T04:28:52.020Z,99218.46
2022-11-09T04:31:23.131Z,99221.33
2022-11-09T04:33:55.977Z,99221.48
2022-11-09T04:36:24.605Z,99229.75
2022-11-09T04:38:52.955Z,99230.44
2022-11-09T04:41:21.549Z,99233.08
2022-11-09T04:43:49.853Z,99232.07
2022-11-09T04:46:18.258Z,99230.26
2022-11-09T04:48:47.372Z,99230.02
2022-11-09T04:51:15.817Z,99230.88
2022-11-09T04:53:44.227Z,99228.02
2022-11-09T04:56:13.205Z,99229.87
2022-11-09T04:58:42.312Z,99233.69
2022-11-09T05:01:13.212Z,99232.93
2022-11-09T05:03:42.561Z,99231.95
2022-11-09T05:06:29.843Z,99232.31
2022-11-09T05:09:00.211Z,99233.23
2022-11-09T05:11:29.595Z,99232.30
2022-11-09T05:13:59.073Z,99228.73
2022-11-09T05:16:29.588Z,99225.34
2022-11-09T05:18:58.149Z,99228.44
2022-11-09T05:21:27.834Z,99228.50
2022-11-09T05:23:59.077Z,99222.95
2022-11-09T05:26:29.231Z,99218.70
2022-11-09T05:28:59.420Z,99218.15
2022-11-09T05:31:29.072Z,99217.74
2022-11-09T05:33:59.651Z,99217.13
2022-11-09T05:36:30.692Z,99214.75
2022-11-09T05:38:59.925Z,99212.79
2022-11-09T05:41:28.376Z,99210.73
2022-11-09T05:43:56.775Z,99214.81
2022-11-09T05:46:26.328Z,99211.96
2022-11-09T05:48:54.833Z,99215.54
2022-11-09T05:51:23.250Z,99216.25
2022-11-09T05:53:51.609Z,99221.98
2022-11-09T05:56:20.036Z,99225.83
2022-11-09T05:58:48.389Z,99224.45
2022-11-09T06:01:19.476Z,99226.48
2022-11-09T06:03:48.024Z,99225.08
2022-11-09T06:06:17.014Z,99224.36
2022-11-09T06:08:45.538Z,99224.26
2022-11-09T06:11:18.507Z,99221.25
2022-11-09T06:13:53.210Z,99225.21
2022-11-09T06:16:23.704Z,99221.02
2022-11-09T06:18:52.129Z,99220.02
2022-11-09T06:21:20.830Z,99218.39
2022-11-09T06:23:49.435Z,99216.89
2022-11-09T06:26:17.835Z,99219.77
2022-11-09T06:28:46.185Z,99223.83
2022-11-09T06:31:17.205Z,99227.64
2022-11-09T06:33:45.564Z,99231.06
2022-11-09T06:36:14.294Z,99231.21
2022-11-09T06:38:42.812Z,99227.67
2022-11-09T06:41:11.397Z,99226.21
2022-11-09T06:43:39.800Z,99227.05
2022-11-09T06:46:11.081Z,99226.18
2022-11-09T06:48:39.798Z,99226.98
2022-11-09T06:51:08.262Z,99225.29
2022-11-09T06:53:38.109Z,99224.34
2022-11-09T06:56:07.587Z,99224.65
2022-11-09T06:58:37.240Z,99225.64
2022-11-09T07:01:17.369Z,99223.48
2022-11-09T07:03:45.863Z,99224.27
2022-11-09T07:06:14.984Z,99227.23
2022-11-09T07:08:43.360Z,99227.77
2022-11-09T07:11:16.467Z,99227.27
2022-11-09T07:13:44.805Z,99231.02
2022-11-09T07:16:17.736Z,99231.39
2022-11-09T07:18:46.855Z,99230.85
2022-11-09T07:21:15.310Z,99233.69
2022-11-09T07:23:44.184Z,99231.85
2022-11-09T07:26:12.679Z,99230.25
2022-11-09T07:28:41.769Z,99227.68
2022-11-09T07:31:10.622Z,99231.83
2022-11-09T07:33:39.125Z,99232.98
2022-11-09T07:36:07.930Z,99232.10
2022-11-09T07:38:39.056Z,99233.38
2022-11-09T07:41:07.811Z,99232.26
2022-11-09T07:43:36.240Z,99234.63
2022-11-09T07:46:05.857Z,99226.93
2022-11-09T07:48:34.211Z,99225.08
2022-11-09T07:51:03.257Z,99226.47
2022-11-09T07:53:31.803Z,99222.13
2022-11-09T07:56:02.779Z,99217.59
2022-11-09T07:58:31.798Z,99221.33
2022-11-09T08:01:00.251Z,99224.83
2022-11-09T08:03:28.701Z,99220.71
2022-11-09T08:05:57.999Z,99218.70
2022-11-09T08:08:26.535Z,99215.86
2022-11-09T08:10:57.736Z,99211.73
2022-11-09T08:13:26.608Z,99210.06
2022-11-09T08:15:55.030Z,99210.13
2022-11-09T08:18:23.926Z,99208.92
2022-11-09T08:20:52.640Z,99207.90
2022-11-09T08:23:22.069Z,99207.09
2022-11-09T08:25:51.267Z,99209.34
2022-11-09T08:28:20.251Z,99213.60
2022-11-09T08:31:00.165Z,99211.75
2022-11-09T08:33:31.304Z,99208.24
2022-11-09T08:35:59.695Z,99202.21
2022-11-09T08:38:28.079Z,99201.77
2022-11-09T08:40:58.568Z,99205.61
2022-11-09T08:43:27.130Z,99202.37
2022-11-09T08:45:55.670Z,99203.85
2022-11-09T08:48:24.126Z,99197.17
2022-11-09T08:50:55.055Z,99192.93
2022-11-09T08:53:25.658Z,99190.52
2022-11-09T08:55:54.528Z,99197.98
2022-11-09T08:58:23.217Z,99200.78
2022-11-09T09:00:52.130Z,99195.99
2022-11-09T09:03:20.510Z,99199.63
2022-11-09T09:05:48.994Z,99199.65
2022-11-09T09:08:22.048Z,99200.20
2022-11-09T09:10:51.012Z,99202.58
2022-11-09T09:13:22.795Z,99204.27
2022-11-09T09:15:51.473Z,99207.18
2022-11-09T09:18:20.137Z,99206.98
2022-11-09T09:20:48.962Z,99201.98
2022-11-09T09:23:17.465Z,99198.43
2022-11-09T09:25:45.918Z,99197.92
2022-11-09T09:28:14.292Z,99198.14
2022-11-09T09:30:42.716Z,99189.83
2022-11-09T09:33:12.191Z,99190.71
2022-11-09T09:35:40.548Z,99186.45
2022-11-09T09:38:08.989Z,99186.68
2022-11-09T09:40:45.309Z,99183.44
2022-11-09T09:43:46.006Z,99180.17
2022-11-09T09:46:25.601Z,99179.86
2022-11-09T09:49:20.225Z,99180.02
2022-11-09T09:51:51.890Z,99178.80
2022-11-09T09:54:25.132Z,99175.73
2022-11-09T09:56:57.678Z,99172.48
2022-11-09T09:59:42.959Z,99160.16
2022-11-09T10:02:21.234Z,99151.43
2022-11-09T10:04:50.949Z,99147.40
2022-11-09T10:07:24.777Z,99150.70
2022-11-09T10:10:20.515Z,99154.42
2022-11-09T10:13:13.429Z,99150.56
2022-11-09T10:15:49.856Z,99146.58
2022-11-09T10:18:46.201Z,99143.35
2022-11-09T10:21:36.496Z,99140.15
2022-11-09T10:24:29.894Z,99134.87
2022-11-09T10:27:00.594Z,99131.04
2022-11-09T10:29:36.325Z,99132.11
2022-11-09T10:32:22.589Z,99131.30
2022-11-09T10:35:07.603Z,99126.89
2022-11-09T10:37:42.252Z,99128.48
2022-11-09T10:40:28.797Z,99124.90
2022-11-09T10:43:15.999Z,99119.69
2022-11-09T10:46:08.481Z,99120.02
2022-11-09T10:48:55.975Z,99121.62
2022-11-09T10:51:47.884Z,99122.71
2022-11-09T10:54:38.170Z,99119.25
2022-11-09T10:57:25.873Z,99121.67
2022-11-09T11:00:18.168Z,99119.85
2022-11-09T11:03:17.584Z,99123.73
2022-11-09T11:06:07.852Z,99123.23
2022-11-09T11:08:57.591Z,99122.75
2022-11-09T11:11:44.490Z,99123.43
2022-11-09T11:14:41.859Z,99125.92
2022-11-09T11:17:38.524Z,99125.08
2022-11-09T11:20:33.215Z,99120.02
2022-11-09T11:23:23.982Z,99127.98
2022-11-09T11:26:19.509Z,99127.21
2022-11-09T11:29:18.707Z,99127.73
2022-11-09T11:32:14.940Z,99123.27
2022-11-09T11:35:05.888Z,99123.83
2022-11-09T11:38:20.889Z,99122.30
2022-11-09T11:41:43.858Z,99121.10
2022-11-09T11:44:59.235Z,99117.89
2022-11-09T11:48:15.984Z,99117.85
2022-11-09T11:51:13.369Z,99118.79
2022-11-09T11:54:10.925Z,99120.01
2022-11-09T11:57:30.073Z,99119.83
2022-11-09T12:00:21.354Z,99126.55
2022-11-09T12:03:39.240Z,99125.36
2022-11-09T12:06:53.972Z,99125.88
2022-11-09T12:10:00.021Z,99125.11
2022-11-09T12:13:09.750Z,99124.76
2022-11-09T12:16:02.619Z,99118.26
2022-11-09T12:19:11.121Z,99115.37
2022-11-09T12:22:18.191Z,99109.35
2022-11-09T12:25:21.544Z,99106.56
2022-11-09T12:28:39.886Z,99106.57
2022-11-09T12:31:41.117Z,99103.79
2022-11-09T12:34:33.823Z,99103.18
2022-11-09T12:37:28.298Z,99100.39
2022-11-09T12:40:37.433Z,99101.39
2022-11-09T12:43:35.470Z,99105.16
2022-11-09T12:46:29.190Z,99103.10
2022-11-09T12:49:35.756Z,99097.55
2022-11-09T12:52:28.319Z,99099.80
2022-11-09T12:55:17.903Z,99098.28
2022-11-09T12:58:05.109Z,99097.54
2022-11-09T13:00:55.438Z,99096.84
2022-11-09T13:03:55.235Z,99095.02
2022-11-09T13:06:42.656Z,99095.70
2022-11-09T13:09:43.943Z,99096.52
2022-11-09T13:12:40.516Z,99098.42
2022-11-09T13:15:29.944Z,99098.85
2022-11-09T13:18:22.891Z,99101.70
2022-11-09T13:21:34.649Z,99104.21
2022-11-09T13:24:30.358Z,99104.04
2022-11-09T13:27:41.204Z,99106.83
2022-11-09T13:30:31.021Z,99110.20
2022-11-09T13:33:22.531Z,99114.98
2022-11-09T13:36:10.161Z,99117.98
2022-11-09T13:39:29.966Z,99116.98
2022-11-09T13:42:36.785Z,99117.98
2022-11-09T13:45:46.477Z,99122.16
2022-11-09T13:48:49.637Z,99122.17
2022-11-09T13:51:36.244Z,99124.69
2022-11-09T13:54:30.706Z,99126.85
2022-11-09T13:57:18.109Z,99123.67
2022-11-09T14:00:07.048Z,99125.72
2022-11-09T14:02:58.473Z,99126.76
2022-11-09T14:05:45.953Z,99129.91
2022-11-09T14:08:40.220Z,99128.91
2022-11-09T14:11:48.603Z,99128.84
2022-11-09T14:14:38.248Z,99127.83
2022-11-09T14:17:30.788Z,99129.34
2022-11-09T14:20:57.434Z,99129.13
2022-11-09T14:23:44.492Z,99124.90
2022-11-09T14:26:31.337Z,99123.23
2022-11-09T14:29:24.412Z,99119.36
2022-11-09T14:32:29.041Z,99118.45
2022-11-09T14:35:32.937Z,99117.59
2022-11-09T14:38:27.669Z,99121.54
2022-11-09T14:41:25.806Z,99120.11
2022-11-09T14:44:35.716Z,99116.58
2022-11-09T14:47:32.838Z,99115.31
2022-11-09T14:50:25.236Z,99118.68
2022-11-09T14:53:25.827Z,99120.67
2022-11-09T14:56:17.830Z,99120.51
2022-11-09T14:59:07.011Z,99120.32
2022-11-09T15:02:08.031Z,99117.56
2022-11-09T15:05:01.523Z,99115.33
2022-11-09T15:07:48.581Z,99117.98
2022-11-09T15:10:36.386Z,99118.13
2022-11-09T15:13:31.177Z,99115.52
2022-11-09T15:16:26.536Z,99118.46
2022-11-09T15:19:30.552Z,99118.55
2022-11-09T15:22:52.018Z,99124.27
2022-11-09T15:25:41.700Z,99122.38
2022-11-09T15:28:30.767Z,99121.86
2022-11-09T15:31:19.636Z,99123.08
2022-11-09T15:34:22.881Z,99127.67
2022-11-09T15:37:27.227Z,99126.61
2022-11-09T15:40:18.110Z,99128.29
2022-11-09T15:43:04.703Z,99135.99
2022-11-09T15:45:51.917Z,99136.70
2022-11-09T15:48:42.097Z,99138.00
2022-11-09T15:51:33.375Z,99136.73
2022-11-09T15:54:21.881Z,99136.15
2022-11-09T15:57:15.899Z,99132.60
2022-11-09T16:00:07.784Z,99134.46
2022-11-09T16:02:58.241Z,99141.48
2022-11-09T16:05:45.418Z,99144.34
2022-11-09T16:08:32.743Z,99144.69
2022-11-09T16:11:19.463Z,99144.05
2022-11-09T16:14:06.287Z,99146.95
2022-11-09T16:16:53.140Z,99144.63
2022-11-09T16:19:39.969Z,99142.98
2022-11-09T16:22:32.943Z,99142.67
2022-11-09T16:25:20.688Z,99144.73
2022-11-09T16:28:07.603Z,99149.52
2022-11-09T16:30:54.394Z,99152.08
2022-11-09T16:33:41.751Z,99149.98
2022-11-09T16:36:29.439Z,99151.80
2022-11-09T16:39:19.289Z,99158.58
2022-11-09T16:42:09.042Z,99164.59
2022-11-09T16:44:58.968Z,99171.44
2022-11-09T16:47:50.403Z,99168.48
2022-11-09T16:50:37.284Z,99168.09
2022-11-09T16:53:27.119Z,99169.77
2022-11-09T16:56:14.588Z,99168.98
2022-11-09T16:59:01.329Z,99167.07
2022-11-09T17:01:59.048Z,99165.05
2022-11-09T17:04:45.840Z,99166.18
2022-11-09T17:07:41.963Z,99164.77
2022-11-09T17:10:29.662Z,99163.09
2022-11-09T17:13:16.310Z,99165.38
2022-11-09T17:16:09.232Z,99162.67
2022-11-09T17:18:57.875Z,99165.02
2022-11-09T17:21:44.636Z,99173.56
2022-11-09T17:24:31.730Z,99174.92
2022-11-09T17:27:18.848Z,99177.41
2022-11-09T17:30:07.179Z,99176.87
2022-11-09T17:32:54.813Z,99181.81
2022-11-09T17:35:41.711Z,99182.34
2022-11-09T17:38:30.160Z,99184.02
2022-11-09T17:41:20.553Z,99186.05
2022-11-09T17:44:07.328Z,99189.86
2022-11-09T17:46:54.423Z,99188.86
2022-11-09T17:49:41.309Z,99188.46
2022-11-09T17:52:28.156Z,99186.71
2022-11-09T17:55:16.093Z,99181.48
2022-11-09T17:58:02.996Z,99184.73
2022-11-09T18:00:50.492Z,99179.73
2022-11-09T18:03:38.850Z,99181.21
2022-11-09T18:06:26.246Z,99179.69
2022-11-09T18:09:40.260Z,99178.95
2022-11-09T18:12:20.142Z,99181.98
2022-11-09T18:15:07.529Z,99185.20
2022-11-09T18:17:54.915Z,99189.98
2022-11-09T18:20:41.803Z,99189.31
2022-11-09T18:23:29.068Z,99188.84
2022-11-09T18:26:15.989Z,99190.20
2022-11-09T18:29:03.226Z,99190.42
2022-11-09T18:31:50.115Z,99193.50
2022-11-09T18:34:36.897Z,99194.44
2022-11-09T18:37:23.688Z,99194.98
2022-11-09T18:40:11.019Z,99194.96
2022-11-09T18:42:57.856Z,99198.20
2022-11-09T18:45:45.343Z,99197.34
2022-11-09T18:48:33.282Z,99198.59
2022-11-09T18:51:20.924Z,99198.34
2022-11-09T18:54:10.784Z,99199.46
2022-11-09T18:56:59.233Z,99200.80
2022-11-09T18:59:46.345Z,99201.50
2022-11-09T19:02:34.452Z,99197.35
2022-11-09T19:05:21.120Z,99196.31
2022-11-09T19:08:07.891Z,99198.05
2022-11-09T19:10:54.635Z,99198.64
2022-11-09T19:13:41.575Z,99202.19
2022-11-09T19:16:28.719Z,99199.39
2022-11-09T19:19:16.331Z,99201.15
2022-11-09T19:22:03.217Z,99205.55
2022-11-09T19:24:49.874Z,99207.27
2022-11-09T19:27:37.136Z,99206.12
2022-11-09T19:30:26.034Z,99206.84
2022-11-09T19:33:13.133Z,99204.17
2022-11-09T19:36:28.196Z,99203.52
2022-11-09T19:39:07.134Z,99201.56
2022-11-09T19:41:54.512Z,99198.55
2022-11-09T19:44:41.308Z,99198.00
2022-11-09T19:47:27.872Z,99200.31
2022-11-09T19:50:15.490Z,99201.51
2022-11-09T19:53:02.729Z,99203.04
2022-11-09T19:55:49.500Z,99203.30
2022-11-09T19:58:36.671Z,99208.47
2022-11-09T20:01:24.423Z,99212.73
2022-11-09T20:04:11.285Z,99213.30
2022-11-09T20:06:58.047Z,99214.37
2022-11-09T20:09:44.864Z,99213.98
2022-11-09T20:12:49.707Z,99211.64
2022-11-09T20:15:39.032Z,99210.48
2022-11-09T20:18:26.217Z,99209.34
2022-11-09T20:21:13.306Z,99210.91
2022-11-09T20:24:00.339Z,99210.05
2022-11-09T20:26:47.284Z,99207.98
2022-11-09T20:29:34.471Z,99206.13
2022-11-09T20:32:23.313Z,99205.21
2022-11-09T20:35:10.432Z,99199.88
2022-11-09T20:37:57.480Z,99203.52
2022-11-09T20:40:44.876Z,99200.01
2022-11-09T20:43:33.195Z,99197.27
2022-11-09T20:46:22.519Z,99191.61
2022-11-09T20:49:09.629Z,99186.16
2022-11-09T20:51:56.724Z,99189.23
2022-11-09T20:54:44.196Z,99185.09
2022-11-09T20:57:31.289Z,99183.69
2022-11-09T21:00:24.401Z,99181.16
2022-11-09T21:03:12.248Z,99182.08
2022-11-09T21:06:01.435Z,99178.09
2022-11-09T21:08:51.637Z,99182.02
2022-11-09T21:11:58.579Z,99186.55
2022-11-09T21:14:45.477Z,99191.02
2022-11-09T21:17:32.627Z,99193.35
2022-11-09T21:20:19.568Z,99193.35
2022-11-09T21:23:12.896Z,99196.19
2022-11-09T21:26:19.033Z,99195.88
2022-11-09T21:29:29.098Z,99189.29
2022-11-09T21:32:17.291Z,99198.25
2022-11-09T21:35:07.876Z,99200.44
2022-11-09T21:37:57.964Z,99203.83
2022-11-09T21:40:44.770Z,99205.82
2022-11-09T21:43:31.768Z,99207.07
2022-11-09T21:46:19.193Z,99209.71
2022-11-09T21:49:08.509Z,99214.81
2022-11-09T21:51:56.836Z,99214.95
2022-11-09T21:54:44.029Z,99218.77
2022-11-09T21:57:31.216Z,99219.95
2022-11-09T22:00:18.581Z,99223.17
2022-11-09T22:03:08.482Z,99226.43
2022-11-09T22:05:56.225Z,99233.75
2022-11-09T22:08:47.641Z,99236.02
2022-11-09T22:11:53.165Z,99237.61
2022-11-09T22:14:58.652Z,99239.02
2022-11-09T22:17:45.344Z,99242.19
2022-11-09T22:20:51.569Z,99245.06
2022-11-09T22:23:38.551Z,99247.90
2022-11-09T22:26:26.555Z,99252.90
2022-11-09T22:29:13.925Z,99252.66
2022-11-09T22:32:01.094Z,99255.79
2022-11-09T22:34:48.558Z,99254.52
2022-11-09T22:37:35.347Z,99256.27
2022-11-09T22:40:22.869Z,99261.00
2022-11-09T22:43:09.818Z,99262.92
2022-11-09T22:45:56.769Z,99266.86
2022-11-09T22:48:44.619Z,99268.52
2022-11-09T22:51:31.499Z,99272.30
2022-11-09T22:54:18.458Z,99271.88
2022-11-09T22:57:05.302Z,99273.30
2022-11-09T22:59:52.145Z,99275.73
2022-11-09T23:02:39.266Z,99280.58
2022-11-09T23:05:26.313Z,99279.15
2022-11-09T23:08:13.219Z,99287.23
2022-11-09T23:11:00.132Z,99289.15
2022-11-09T23:13:52.023Z,99284.27
2022-11-09T23:16:39.131Z,99284.34
2022-11-09T23:19:26.066Z,99282.64
2022-11-09T23:22:13.142Z,99282.88
2022-11-09T23:25:18.478Z,99281.83
2022-11-09T23:28:05.526Z,99284.22
2022-11-09T23:30:52.223Z,99292.52
2022-11-09T23:33:39.923Z,99298.14
2022-11-09T23:36:26.797Z,99299.89
2022-11-09T23:39:13.335Z,99291.98
2022-11-09T23:42:00.411Z,99295.50
2022-11-09T23:44:47.256Z,99298.08
2022-11-09T23:47:34.129Z,99296.75
2022-11-09T23:50:21.667Z,99298.21
2022-11-09T23:53:10.546Z,99303.75
2022-11-09T23:56:09.714Z,99306.47
2022-11-09T23:58:56.744Z,99306.74
